ENTO

Sandefjord , Torp Airport

Torp, Norway
METAR ENTO 162350Z AUTO 34003KT 9999 NCD M05/M09 Q1012
Observed Flight Rules
Dec-16 @ 23:50 UTC (42 minutes ago) Visual Flight Rules
Wind Visibility Clouds
340° at 3 knots 10,000+ meters
  • Clear skies
Temperatures Readings
Current -5°C / 23°F
Dewpoint -9°C / 16°F
Humidity 74%
Altimeter 29.88" Hg
Pressure 1012 hPa
Elevation 88
METAR ENTO 162350Z AUTO 34003KT 9999 NCD M05/M09 Q1012
Observed Flight Rules
Dec-16 @ 23:50 UTC
(42 minutes ago)
VFR
Wind Visibility
340° at 3 knots 10,000+ meters
Clouds
  • Clear skies
Temperature Dewpoint
-5°C / 23°F -9°C / 16°F
Humidity Altimeter Pressure
74% 29.88" Hg 1012 hPa